createdAt,value
2022-10-06T00:00:00.210Z,1.1
2022-10-06T00:05:00.206Z,1.1
2022-10-06T00:10:00.234Z,1.1
2022-10-06T00:15:00.223Z,1.1
2022-10-06T00:20:00.214Z,1.1
2022-10-06T00:25:00.235Z,1.1
2022-10-06T00:30:00.267Z,1.1
2022-10-06T00:35:00.230Z,1.1
2022-10-06T00:40:00.240Z,1.1
2022-10-06T00:45:00.241Z,1.1
2022-10-06T00:50:00.253Z,1.1
2022-10-06T00:55:00.248Z,1.1
2022-10-06T01:00:00.254Z,1.1
2022-10-06T01:05:00.278Z,1.1
2022-10-06T01:10:00.356Z,1.1
2022-10-06T01:15:00.284Z,1.1
2022-10-06T01:20:00.359Z,1.1
2022-10-06T01:25:00.282Z,1.1
2022-10-06T01:30:00.306Z,1.1
2022-10-06T01:35:00.361Z,1.1
2022-10-06T01:40:00.316Z,1.1
2022-10-06T01:45:00.294Z,1.1
2022-10-06T01:50:00.341Z,1.1
2022-10-06T01:55:00.313Z,1.1
2022-10-06T02:00:00.326Z,1.1
2022-10-06T02:05:01.317Z,1.1
2022-10-06T02:10:01.322Z,1.1
2022-10-06T02:15:01.316Z,1.1
2022-10-06T02:20:01.338Z,1.1
2022-10-06T02:25:01.336Z,1.1
2022-10-06T02:30:01.352Z,1.1
2022-10-06T02:35:01.340Z,1.1
2022-10-06T02:40:01.365Z,1.1
2022-10-06T02:45:01.365Z,1.1
2022-10-06T02:50:01.349Z,1.1
2022-10-06T02:55:01.372Z,1.1
2022-10-06T03:00:01.368Z,1.1
2022-10-06T03:05:01.372Z,1.1
2022-10-06T03:10:01.384Z,1.1
2022-10-06T03:15:01.391Z,1.1
2022-10-06T03:20:01.440Z,1.1
2022-10-06T03:25:01.397Z,1.1
2022-10-06T03:30:01.392Z,1.1
2022-10-06T03:35:01.424Z,1.1
2022-10-06T03:40:01.414Z,1.1
2022-10-06T03:45:01.414Z,1.1
2022-10-06T03:50:01.435Z,1.1
2022-10-06T03:55:01.419Z,1.1
2022-10-06T04:00:01.437Z,1.1
2022-10-06T04:05:01.492Z,1.1
2022-10-06T04:10:01.425Z,1.1
2022-10-06T04:15:01.442Z,1.1
2022-10-06T04:20:01.680Z,1.1
2022-10-06T04:25:01.586Z,1.1
2022-10-06T04:30:01.579Z,1.1
2022-10-06T04:35:01.605Z,1.1
2022-10-06T04:40:01.505Z,1.1
2022-10-06T04:45:00.215Z,1.1
2022-10-06T04:50:00.204Z,1.1
2022-10-06T04:55:00.219Z,1.1
2022-10-06T05:00:05.423Z,1.1
2022-10-06T05:05:00.199Z,1.1
2022-10-06T05:10:00.228Z,2.3
2022-10-06T05:15:00.223Z,6
2022-10-06T05:20:00.233Z,14.6
2022-10-06T05:25:00.223Z,30.6
2022-10-06T05:30:00.232Z,61.9
2022-10-06T05:35:00.246Z,97.5
2022-10-06T05:40:00.236Z,150
2022-10-06T05:45:00.277Z,207.2
2022-10-06T05:50:00.249Z,272.8
2022-10-06T05:55:00.259Z,326.4
2022-10-06T06:00:00.262Z,424.6
2022-10-06T06:05:00.275Z,445.4
2022-10-06T06:10:00.291Z,478.5
2022-10-06T06:15:00.294Z,508
2022-10-06T06:20:00.325Z,559
2022-10-06T06:30:00.347Z,637.6
2022-10-06T06:35:00.319Z,790.8
2022-10-06T06:40:00.316Z,736
2022-10-06T06:45:00.319Z,744.8
2022-10-06T06:50:00.396Z,839.5
2022-10-06T06:55:00.362Z,870.2
2022-10-06T07:00:00.331Z,870.2
2022-10-06T07:05:00.331Z,912.8
2022-10-06T07:10:00.550Z,969
2022-10-06T07:15:00.554Z,1041.1
2022-10-06T07:20:00.454Z,1145.6
2022-10-06T07:25:00.499Z,1230.8
2022-10-06T07:30:00.557Z,1275.8
2022-10-06T07:35:00.500Z,1370.7
2022-10-06T07:40:00.389Z,946.1
2022-10-06T07:45:00.385Z,1472.7
2022-10-06T07:55:00.379Z,1679.7
2022-10-06T08:00:03.041Z,1804.7
2022-10-06T08:05:00.515Z,1826.4
2022-10-06T08:10:00.428Z,1870.6
2022-10-06T08:15:04.464Z,1938.9
2022-10-06T08:20:00.424Z,1985.8
2022-10-06T08:25:06.149Z,2058.4
2022-10-06T08:30:00.412Z,2058.4
2022-10-06T08:35:00.441Z,2058.4
2022-10-06T08:45:00.453Z,2058.4
2022-10-06T08:50:00.455Z,2058.4
2022-10-06T08:55:00.478Z,2058.4
2022-10-06T09:00:00.781Z,2058.4
2022-10-06T09:05:00.504Z,2034
2022-10-06T09:10:00.471Z,2009.8
2022-10-06T09:15:00.513Z,2009.8
2022-10-06T09:20:00.496Z,2009.8
2022-10-06T09:25:00.494Z,2058.4
2022-10-06T09:30:00.534Z,2058.4
2022-10-06T09:35:00.504Z,2108.2
2022-10-06T09:40:00.504Z,2211.5
2022-10-06T09:45:00.644Z,2492.4
2022-10-06T09:50:00.514Z,2462.8
2022-10-06T10:00:02.702Z,4218.4
2022-10-06T10:05:00.542Z,4642
2022-10-06T10:10:00.547Z,5047.1
2022-10-06T10:15:00.523Z,5047.1
2022-10-06T10:20:00.885Z,3879.6
2022-10-06T10:25:00.536Z,3611.1
2022-10-06T10:30:00.572Z,3361
2022-10-06T10:35:00.689Z,3483.7
2022-10-06T10:40:00.443Z,4532.1
2022-10-06T10:45:00.539Z,2911.7
2022-10-06T10:50:00.210Z,4372.4
2022-10-06T10:55:00.493Z,5107.8
2022-10-06T11:00:00.236Z,5358.2
2022-10-06T11:05:00.620Z,5620.7
2022-10-06T11:10:00.222Z,6259.4
2022-10-06T11:15:00.684Z,5553.9
2022-10-06T11:20:00.492Z,4118.8
2022-10-06T11:25:00.641Z,4320.5
2022-10-06T11:30:00.743Z,2159.2
2022-10-06T11:35:00.195Z,1437.9
2022-10-06T11:40:00.849Z,992.5
2022-10-06T11:45:00.732Z,1016.5
2022-10-06T11:50:00.311Z,1437.9
2022-10-06T11:55:00.699Z,1783.3
2022-10-06T12:00:00.220Z,2404.6
2022-10-06T12:05:00.686Z,2133.6
2022-10-06T12:10:00.238Z,1526.4
2022-10-06T12:20:00.268Z,2185.2
2022-10-06T12:25:00.832Z,3525.6
2022-10-06T12:30:00.877Z,2742.6
2022-10-06T12:35:00.521Z,2462.8
2022-10-06T12:40:00.272Z,2677.9
2022-10-06T12:50:00.504Z,2742.6
2022-10-06T12:55:00.948Z,2433.5
2022-10-06T13:00:00.488Z,2376
2022-10-06T13:05:00.751Z,1699.9
2022-10-06T13:10:00.291Z,2292.3
2022-10-06T13:15:00.665Z,2265.1
2022-10-06T13:20:00.662Z,2211.5
2022-10-06T13:25:00.332Z,2211.5
2022-10-06T13:30:00.837Z,2211.5
2022-10-06T13:35:00.775Z,2108.2
2022-10-06T13:40:00.853Z,2159.2
2022-10-06T13:45:00.415Z,2211.5
2022-10-06T13:50:00.751Z,2159.2
2022-10-06T13:55:00.881Z,2211.5
2022-10-06T14:00:00.920Z,2265.1
2022-10-06T14:05:00.963Z,3165.8
2022-10-06T14:10:00.388Z,3091.1
2022-10-06T14:15:00.878Z,2614.6
2022-10-06T14:20:00.794Z,2292.3
2022-10-06T14:25:00.374Z,2133.6
2022-10-06T14:30:00.998Z,2319.9
2022-10-06T14:35:00.411Z,2492.4
2022-10-06T14:40:00.881Z,2238.1
2022-10-06T14:45:00.788Z,2462.8
2022-10-06T14:55:00.942Z,2238.1
2022-10-06T15:00:01.006Z,1985.8
2022-10-06T15:05:00.470Z,2108.2
2022-10-06T15:10:00.449Z,1826.4
2022-10-06T15:15:00.422Z,1659.7
2022-10-06T15:20:00.427Z,1601.3
2022-10-06T15:25:00.433Z,1720.4
2022-10-06T15:30:00.437Z,1870.6
2022-10-06T15:35:00.473Z,1601.3
2022-10-06T15:40:00.513Z,1490.4
2022-10-06T15:45:05.087Z,1338.3
2022-10-06T15:50:00.489Z,1066.3
2022-10-06T15:55:00.482Z,809.9
2022-10-06T16:00:00.538Z,637.6
2022-10-06T16:05:00.478Z,539.3
2022-10-06T16:10:00.492Z,593.4
2022-10-06T16:15:00.485Z,434.9
2022-10-06T16:20:00.532Z,450.8
2022-10-06T16:25:00.561Z,404.8
2022-10-06T16:30:00.574Z,359.1
2022-10-06T16:35:00.525Z,236.3
2022-10-06T16:40:00.428Z,141.3
2022-10-06T16:45:00.317Z,72.3
2022-10-06T16:50:00.201Z,38.8
2022-10-06T16:55:00.205Z,21.6
2022-10-06T17:00:00.241Z,15.7
2022-10-06T17:05:00.182Z,10.3
2022-10-06T17:10:19.478Z,5.3
2022-10-06T17:15:00.178Z,1.9
2022-10-06T17:20:00.184Z,1.1
2022-10-06T17:25:00.199Z,1.1
2022-10-06T17:30:00.193Z,1.1
2022-10-06T17:35:00.203Z,1.1
2022-10-06T17:40:00.221Z,1.1
2022-10-06T17:45:00.261Z,1.1
2022-10-06T17:50:00.214Z,1.1
2022-10-06T17:55:00.234Z,1.1
2022-10-06T18:00:00.273Z,1.1
2022-10-06T18:05:00.238Z,1.1
2022-10-06T18:10:00.234Z,1.1
2022-10-06T18:15:00.267Z,1.1
2022-10-06T18:20:00.261Z,1.1
2022-10-06T18:25:00.295Z,1.1
2022-10-06T18:30:00.391Z,1.1
2022-10-06T18:36:12.904Z,1.1
2022-10-06T18:40:00.263Z,1.1
2022-10-06T18:45:00.265Z,1.1
2022-10-06T18:50:00.284Z,1.1
2022-10-06T18:55:00.297Z,1.1
2022-10-06T19:00:00.313Z,1.1
2022-10-06T19:05:00.425Z,1.1
2022-10-06T19:10:00.448Z,1.1
2022-10-06T19:15:00.550Z,1.1
2022-10-06T19:20:00.490Z,1.1
2022-10-06T19:25:00.497Z,1.1
2022-10-06T19:30:00.430Z,1.1
2022-10-06T19:35:00.586Z,1.1
2022-10-06T19:40:00.360Z,1.1
2022-10-06T19:45:00.339Z,1.1
2022-10-06T19:50:04.695Z,1.1
2022-10-06T19:55:00.337Z,1.1
2022-10-06T20:00:00.359Z,1.1
2022-10-06T20:05:00.437Z,1.1
2022-10-06T20:10:00.397Z,1.1
2022-10-06T20:15:00.405Z,1.1
2022-10-06T20:20:00.408Z,1.1
2022-10-06T20:25:00.397Z,1.1
2022-10-06T20:30:00.411Z,1.1
2022-10-06T20:35:00.381Z,1.1
2022-10-06T20:40:00.381Z,1.1
2022-10-06T20:45:00.399Z,1.1
2022-10-06T20:50:00.405Z,1.1
2022-10-06T20:55:00.432Z,1.1
2022-10-06T21:00:00.451Z,1.1
2022-10-06T21:05:00.415Z,1.1
2022-10-06T21:10:00.402Z,1.1
2022-10-06T21:15:00.419Z,1.1
2022-10-06T21:20:00.421Z,1.1
2022-10-06T21:25:00.435Z,1.1
2022-10-06T21:30:00.444Z,1.1
2022-10-06T21:35:00.445Z,1.1
2022-10-06T21:40:02.479Z,1.1
2022-10-06T21:45:00.453Z,1.1
2022-10-06T21:50:00.457Z,1.1
2022-10-06T21:55:00.500Z,1.1
2022-10-06T22:00:00.559Z,1.1
2022-10-06T22:05:00.470Z,1.1
2022-10-06T22:10:00.486Z,1.1
2022-10-06T22:15:00.721Z,1.1
2022-10-06T22:20:00.671Z,1.1
2022-10-06T22:25:00.701Z,1.1
2022-10-06T22:30:00.760Z,1.1
2022-10-06T22:35:00.678Z,1.1
2022-10-06T22:40:05.357Z,1.1
2022-10-06T22:45:00.399Z,1.1
2022-10-06T22:50:00.212Z,1.1
2022-10-06T22:55:00.205Z,1.1
2022-10-06T23:00:00.149Z,1.1
2022-10-06T23:05:00.198Z,1.1
2022-10-06T23:10:00.233Z,1.1
2022-10-06T23:15:00.205Z,1.1
2022-10-06T23:20:00.214Z,1.1
2022-10-06T23:25:00.189Z,1.1
2022-10-06T23:30:00.252Z,1.1
2022-10-06T23:35:00.196Z,1.1
2022-10-06T23:40:00.226Z,1.1
2022-10-06T23:45:00.226Z,1.1
2022-10-06T23:50:00.258Z,1.1
2022-10-06T23:55:00.214Z,1.1
